Time;durP1;ratioP1;P1;durP2;ratioP2;P2;SDS_P1;SDS_P2;PMS_P1;PMS_P2;Temp;Humidity;BMP_temperature;BMP_pressure;BME280_temperature;BME280_humidity;BME280_pressure;Samples;Min_cycle;Max_cycle;Signal;HPM_P1;HPM_P2
2023/03/10 00:01:13;;;;;;;0.10;0.10;;;12.00;99.90;;;;;;5016921;28;20299;-86
2023/03/10 00:03:39;;;;;;;0.10;0.10;;;12.00;99.90;;;;;;5018949;28;20199;-86
2023/03/10 00:06:05;;;;;;;0.10;0.10;;;12.00;99.90;;;;;;5018252;28;20986;-86
2023/03/10 00:08:31;;;;;;;0.10;0.10;;;12.00;99.90;;;;;;5034456;28;20205;-85
2023/03/10 00:10:57;;;;;;;0.10;0.10;;;12.00;99.90;;;;;;5034283;28;20257;-86
2023/03/10 00:13:23;;;;;;;0.10;0.10;;;12.00;99.90;;;;;;5014555;28;20200;-85
2023/03/10 00:15:48;;;;;;;0.03;0.03;;;12.00;99.90;;;;;;5017667;28;20278;-85
2023/03/10 00:18:14;;;;;;;0.10;0.10;;;11.90;99.90;;;;;;5017145;28;20219;-86
2023/03/10 00:20:39;;;;;;;0.10;0.10;;;11.90;99.90;;;;;;5013991;28;20186;-86
2023/03/10 00:23:05;;;;;;;0.10;0.10;;;11.90;99.90;;;;;;5016310;28;20640;-86
2023/03/10 00:25:31;;;;;;;0.10;0.10;;;11.90;99.90;;;;;;5017385;28;20240;-86
2023/03/10 00:27:56;;;;;;;0.10;0.10;;;11.90;99.90;;;;;;5016358;28;20697;-86
2023/03/10 00:30:22;;;;;;;0.10;0.10;;;11.90;99.90;;;;;;5018720;28;20183;-85
2023/03/10 00:32:49;;;;;;;0.10;0.10;;;11.90;99.90;;;;;;5014934;28;20174;-85
2023/03/10 00:35:15;;;;;;;0.10;0.10;;;11.90;99.90;;;;;;5018050;28;20205;-86
2023/03/10 00:37:41;;;;;;;0.10;0.10;;;11.80;99.90;;;;;;5015961;28;20683;-85
2023/03/10 00:40:09;;;;;;;0.10;0.10;;;11.80;99.90;;;;;;5012876;28;20188;-86
2023/03/10 00:42:35;;;;;;;0.10;0.10;;;11.80;99.90;;;;;;5017856;28;20186;-86
2023/03/10 00:45:01;;;;;;;0.10;0.10;;;11.80;99.90;;;;;;5033816;28;20267;-85
2023/03/10 00:47:26;;;;;;;0.10;0.10;;;11.70;99.90;;;;;;5014564;28;20252;-86
2023/03/10 00:49:52;;;;;;;0.10;0.10;;;11.70;99.90;;;;;;5016018;28;20178;-86
2023/03/10 00:52:18;;;;;;;0.00;0.00;;;11.70;99.90;;;;;;5032176;28;20224;-85
2023/03/10 00:54:43;;;;;;;0.10;0.10;;;11.70;99.90;;;;;;5017483;28;20802;-86
2023/03/10 00:57:09;;;;;;;0.10;0.10;;;11.70;99.90;;;;;;5014307;28;20220;-86
2023/03/10 00:59:34;;;;;;;0.10;0.10;;;11.70;99.90;;;;;;5014658;28;20185;-86
2023/03/10 01:02:00;;;;;;;0.10;0.10;;;11.70;99.90;;;;;;5016865;28;21166;-86
2023/03/10 01:04:25;;;;;;;0.10;0.10;;;11.60;99.90;;;;;;5016456;28;20178;-85
2023/03/10 01:06:51;;;;;;;0.10;0.10;;;11.70;99.90;;;;;;5017543;28;20295;-86
2023/03/10 01:09:16;;;;;;;0.10;0.10;;;11.60;99.90;;;;;;5034541;28;20197;-86
2023/03/10 01:11:42;;;;;;;0.10;0.10;;;11.60;99.90;;;;;;5035893;28;20216;-86
2023/03/10 01:14:11;;;;;;;0.10;0.10;;;11.60;99.90;;;;;;5016438;28;20312;-86
2023/03/10 01:16:37;;;;;;;0.10;0.10;;;11.60;99.90;;;;;;5033818;28;20209;-86
2023/03/10 01:19:03;;;;;;;0.10;0.10;;;11.60;99.90;;;;;;5014690;28;20221;-86
2023/03/10 01:21:31;;;;;;;0.10;0.10;;;11.60;99.90;;;;;;5016195;28;20240;-86
2023/03/10 01:23:58;;;;;;;0.10;0.10;;;11.70;99.90;;;;;;5015167;28;20186;-86
2023/03/10 01:26:23;;;;;;;0.10;0.10;;;11.60;99.90;;;;;;5031918;28;20605;-85
2023/03/10 01:28:49;;;;;;;0.10;0.10;;;11.60;99.90;;;;;;5016738;28;20193;-86
2023/03/10 01:31:16;;;;;;;0.10;0.10;;;11.60;99.90;;;;;;5015779;28;20194;-86
2023/03/10 01:33:42;;;;;;;0.10;0.10;;;11.60;99.90;;;;;;5033677;28;20252;-86
2023/03/10 01:36:09;;;;;;;0.10;0.10;;;11.50;99.90;;;;;;5016102;28;20197;-86
2023/03/10 01:38:36;;;;;;;0.10;0.10;;;11.60;99.90;;;;;;5016843;28;20253;-86
2023/03/10 01:41:03;;;;;;;0.10;0.10;;;11.60;99.90;;;;;;5032921;28;20186;-86
2023/03/10 01:43:39;;;;;;;0.10;0.10;;;11.60;99.90;;;;;;5014450;28;20197;-85
2023/03/10 01:46:26;;;;;;;0.10;0.10;;;11.60;99.90;;;;;;5013710;28;20221;-86
2023/03/10 01:48:53;;;;;;;0.00;0.00;;;11.60;99.90;;;;;;5033096;28;20193;-85
2023/03/10 01:51:19;;;;;;;0.10;0.10;;;11.50;99.90;;;;;;5033872;28;20232;-85
2023/03/10 01:53:45;;;;;;;0.10;0.10;;;11.50;99.90;;;;;;5021999;28;20282;-86
2023/03/10 01:56:12;;;;;;;0.10;0.10;;;11.50;99.90;;;;;;5020253;28;20196;-86
2023/03/10 01:58:41;;;;;;;0.00;0.00;;;11.50;99.90;;;;;;5024537;28;20975;-86
2023/03/10 02:01:09;;;;;;;0.10;0.10;;;11.50;99.90;;;;;;5026164;28;20566;-87
2023/03/10 02:03:50;;;;;;;0.10;0.10;;;11.50;99.90;;;;;;5051680;28;20200;-86
2023/03/10 02:06:18;;;;;;;0.10;0.10;;;11.50;99.90;;;;;;5035839;28;20210;-85
2023/03/10 02:08:51;;;;;;;0.10;0.10;;;11.50;99.90;;;;;;5026705;28;20186;-83
2023/03/10 02:11:18;;;;;;;0.10;0.10;;;11.50;99.90;;;;;;5035822;28;20200;-83
2023/03/10 02:13:43;;;;;;;0.10;0.10;;;11.40;99.90;;;;;;5017964;28;20179;-85
2023/03/10 02:16:10;;;;;;;0.10;0.10;;;11.40;99.90;;;;;;5020039;28;20200;-85
2023/03/10 02:18:35;;;;;;;0.10;0.10;;;11.40;99.90;;;;;;5020069;28;20279;-86
2023/03/10 02:21:10;;;;;;;0.10;0.10;;;11.40;99.90;;;;;;5020529;28;20186;-86
2023/03/10 02:24:15;;;;;;;0.10;0.10;;;11.40;99.90;;;;;;5020371;28;20261;-85
2023/03/10 02:27:00;;;;;;;0.00;0.00;;;11.40;99.90;;;;;;4940253;28;20228;-86
2023/03/10 02:29:48;;;;;;;0.10;0.10;;;11.40;99.90;;;;;;4946560;28;20328;-86
2023/03/10 02:32:15;;;;;;;0.10;0.10;;;11.40;99.90;;;;;;5013037;28;20217;-86
2023/03/10 02:34:41;;;;;;;0.10;0.10;;;11.40;99.90;;;;;;5017098;28;20185;-86
2023/03/10 02:37:06;;;;;;;0.10;0.10;;;11.40;99.90;;;;;;5038163;28;20197;-86
2023/03/10 02:39:32;;;;;;;0.10;0.10;;;11.40;99.90;;;;;;5018181;28;20298;-86
2023/03/10 02:41:57;;;;;;;0.10;0.10;;;11.30;99.90;;;;;;5020751;28;20527;-86
2023/03/10 02:44:24;;;;;;;0.10;0.10;;;11.40;99.90;;;;;;5020766;28;20183;-86
2023/03/10 02:46:50;;;;;;;0.10;0.10;;;11.40;99.90;;;;;;5017807;28;20212;-85
2023/03/10 02:49:18;;;;;;;0.10;0.10;;;11.30;99.90;;;;;;5019238;28;21755;-85
2023/03/10 02:51:45;;;;;;;0.10;0.10;;;11.40;99.90;;;;;;5018386;28;20225;-86
2023/03/10 02:54:12;;;;;;;0.10;0.10;;;11.40;99.90;;;;;;5016446;28;20177;-86
2023/03/10 02:56:38;;;;;;;0.10;0.10;;;11.40;99.90;;;;;;5018790;28;20206;-86
2023/03/10 02:59:06;;;;;;;0.10;0.10;;;11.40;99.90;;;;;;5034606;28;21250;-86
2023/03/10 03:01:32;;;;;;;0.10;0.10;;;11.30;99.90;;;;;;5036787;28;20664;-85
2023/03/10 03:03:58;;;;;;;0.10;0.10;;;11.20;99.90;;;;;;5016508;28;20351;-86
2023/03/10 03:06:25;;;;;;;0.03;0.03;;;11.20;99.90;;;;;;5018386;28;20222;-85
2023/03/10 03:08:50;;;;;;;0.10;0.10;;;11.10;99.90;;;;;;5017668;28;20674;-86
2023/03/10 03:11:16;;;;;;;0.10;0.10;;;11.10;99.90;;;;;;5017693;28;20182;-86
2023/03/10 03:13:42;;;;;;;0.00;0.00;;;11.10;99.90;;;;;;5018371;28;20667;-86
2023/03/10 03:16:08;;;;;;;0.10;0.10;;;11.00;99.90;;;;;;5037035;28;20192;-86
2023/03/10 03:18:35;;;;;;;0.10;0.10;;;11.10;99.90;;;;;;5018834;28;20186;-86
2023/03/10 03:21:09;;;;;;;0.10;0.10;;;11.10;99.90;;;;;;5019599;28;20284;-85
2023/03/10 03:23:36;;;;;;;0.10;0.10;;;11.10;99.90;;;;;;5026299;28;20597;-86
2023/03/10 03:26:03;;;;;;;0.10;0.10;;;11.10;99.90;;;;;;5034635;28;20224;-85
2023/03/10 03:28:28;;;;;;;0.10;0.10;;;11.10;99.90;;;;;;5032787;28;20583;-85
2023/03/10 03:30:54;;;;;;;0.10;0.10;;;11.10;99.90;;;;;;5036223;28;20178;-86
2023/03/10 03:33:20;;;;;;;0.00;0.00;;;11.10;99.90;;;;;;5017407;28;20189;-86
2023/03/10 03:35:45;;;;;;;0.10;0.10;;;11.10;99.90;;;;;;5016635;28;20703;-86
2023/03/10 03:38:11;;;;;;;0.10;0.10;;;11.10;99.90;;;;;;5015231;28;20561;-86
2023/03/10 03:40:37;;;;;;;0.10;0.10;;;11.10;99.90;;;;;;5016448;28;20190;-85
2023/03/10 03:43:03;;;;;;;0.07;0.07;;;11.10;99.90;;;;;;5035105;28;20180;-85
2023/03/10 03:45:31;;;;;;;0.10;0.10;;;11.00;99.90;;;;;;5016777;28;20205;-86
2023/03/10 03:47:57;;;;;;;0.10;0.10;;;11.10;99.90;;;;;;5017382;28;20255;-86
2023/03/10 03:50:23;;;;;;;0.10;0.10;;;11.10;99.90;;;;;;5034265;28;20230;-86
2023/03/10 03:52:49;;;;;;;0.00;0.00;;;11.00;99.90;;;;;;5015383;28;20194;-86
2023/03/10 03:55:17;;;;;;;0.10;0.10;;;11.00;99.90;;;;;;5017279;28;20190;-85
2023/03/10 03:57:46;;;;;;;0.00;0.00;;;11.00;99.90;;;;;;5024533;28;20274;-85
2023/03/10 04:00:21;;;;;;;0.10;0.10;;;11.00;99.90;;;;;;5017282;28;20198;-85
2023/03/10 04:02:47;;;;;;;0.10;0.10;;;11.00;99.90;;;;;;5035641;28;20190;-84
2023/03/10 04:05:13;;;;;;;0.00;0.00;;;11.00;99.90;;;;;;5034750;28;20553;-86
2023/03/10 04:07:40;;;;;;;0.10;0.10;;;10.90;99.90;;;;;;5015821;28;20437;-85
2023/03/10 04:10:09;;;;;;;0.10;0.10;;;10.90;99.90;;;;;;5018027;28;20209;-86
2023/03/10 04:12:36;;;;;;;0.10;0.10;;;10.80;99.90;;;;;;5031039;28;20190;-86
2023/03/10 04:15:02;;;;;;;0.07;0.07;;;10.80;99.90;;;;;;5017155;28;20182;-86
2023/03/10 04:17:27;;;;;;;0.10;0.10;;;10.80;99.90;;;;;;5034447;28;20263;-87
2023/03/10 04:19:53;;;;;;;0.10;0.10;;;10.80;99.90;;;;;;5016847;28;20654;-86
2023/03/10 04:22:18;;;;;;;0.10;0.10;;;10.70;99.90;;;;;;5016941;28;20193;-86
2023/03/10 04:24:44;;;;;;;0.10;0.10;;;10.70;99.90;;;;;;5015292;28;20297;-86
2023/03/10 04:27:10;;;;;;;0.10;0.10;;;10.70;99.90;;;;;;5040289;28;20831;-86
2023/03/10 04:29:36;;;;;;;0.10;0.10;;;10.70;99.90;;;;;;5032093;28;20189;-86
2023/03/10 04:32:03;;;;;;;0.10;0.10;;;10.70;99.90;;;;;;5015182;28;20205;-86
2023/03/10 04:34:29;;;;;;;0.10;0.10;;;10.70;99.90;;;;;;5016910;28;20186;-87
2023/03/10 04:36:54;;;;;;;0.10;0.10;;;10.70;99.90;;;;;;5034489;28;20586;-87
2023/03/10 04:39:20;;;;;;;0.10;0.10;;;10.70;99.90;;;;;;5033138;28;20201;-87
2023/03/10 04:41:45;;;;;;;0.10;0.10;;;10.80;99.90;;;;;;5014519;28;20193;-86
2023/03/10 04:44:11;;;;;;;0.10;0.10;;;10.80;99.90;;;;;;5014076;28;20204;-86
2023/03/10 04:46:36;;;;;;;0.10;0.10;;;10.80;99.90;;;;;;5014368;28;20229;-85
2023/03/10 04:49:02;;;;;;;0.10;0.10;;;10.90;99.90;;;;;;5016906;28;20185;-86
2023/03/10 04:51:28;;;;;;;0.10;0.10;;;10.90;99.90;;;;;;5033702;28;20200;-86
2023/03/10 04:53:54;;;;;;;0.10;0.10;;;10.90;99.90;;;;;;5017484;28;20183;-86
2023/03/10 04:56:19;;;;;;;0.10;0.10;;;10.90;99.90;;;;;;5015648;28;20193;-85
2023/03/10 04:58:45;;;;;;;0.10;0.10;;;10.90;99.90;;;;;;5018165;28;20659;-85
2023/03/10 05:01:13;;;;;;;0.10;0.10;;;11.00;99.90;;;;;;5032382;28;20190;-86
2023/03/10 05:03:38;;;;;;;0.10;0.10;;;11.00;99.90;;;;;;5030023;28;20201;-86
2023/03/10 05:06:09;;;;;;;0.10;0.10;;;11.00;99.90;;;;;;5032959;28;20786;-86
2023/03/10 05:08:35;;;;;;;0.07;0.07;;;11.00;99.90;;;;;;5033497;28;20186;-84
2023/03/10 05:11:05;;;;;;;0.10;0.10;;;11.00;99.90;;;;;;5016612;28;20182;-85
2023/03/10 05:13:31;;;;;;;0.10;0.10;;;11.00;99.90;;;;;;5034530;28;20235;-85
2023/03/10 05:15:56;;;;;;;0.10;0.10;;;11.00;99.90;;;;;;5016569;28;20539;-86
2023/03/10 05:18:22;;;;;;;0.07;0.07;;;11.00;99.90;;;;;;5014339;28;20216;-85
2023/03/10 05:20:56;;;;;;;0.10;0.10;;;11.00;99.90;;;;;;5014007;28;20182;-86
2023/03/10 05:23:22;;;;;;;0.10;0.10;;;11.00;99.90;;;;;;5016497;28;20209;-86
2023/03/10 05:25:48;;;;;;;0.10;0.10;;;11.00;99.90;;;;;;5015605;28;20212;-84
2023/03/10 05:28:14;;;;;;;0.10;0.10;;;10.90;99.90;;;;;;5017943;28;20225;-85
2023/03/10 05:30:40;;;;;;;0.10;0.10;;;10.90;99.90;;;;;;5036359;28;20178;-85
2023/03/10 05:33:05;;;;;;;0.10;0.10;;;10.90;99.90;;;;;;5018304;28;20178;-82
2023/03/10 05:35:31;;;;;;;0.10;0.10;;;10.80;99.90;;;;;;5019675;28;20178;-83
2023/03/10 05:37:57;;;;;;;0.10;0.10;;;10.70;99.90;;;;;;5028510;28;20205;-83
2023/03/10 05:40:22;;;;;;;0.10;0.10;;;10.70;99.90;;;;;;5036758;28;20194;-82
2023/03/10 05:42:48;;;;;;;0.10;0.10;;;10.70;99.90;;;;;;5035882;28;21126;-82
2023/03/10 05:45:14;;;;;;;0.10;0.10;;;10.70;99.90;;;;;;5017880;28;21111;-82
2023/03/10 05:47:40;;;;;;;0.10;0.10;;;10.70;99.90;;;;;;5016511;28;20207;-82
2023/03/10 05:50:07;;;;;;;0.10;0.10;;;10.70;99.90;;;;;;5037385;28;20545;-82
2023/03/10 05:52:37;;;;;;;0.10;0.10;;;10.70;99.90;;;;;;5036818;28;20198;-83
2023/03/10 05:55:03;;;;;;;0.10;0.10;;;10.60;99.90;;;;;;5040822;28;20181;-85
2023/03/10 05:57:28;;;;;;;0.07;0.07;;;10.60;99.90;;;;;;5021831;28;20683;-85
2023/03/10 05:59:54;;;;;;;0.10;0.10;;;10.60;99.90;;;;;;5045088;28;20248;-85
2023/03/10 06:02:19;;;;;;;0.10;0.10;;;10.60;99.90;;;;;;5041974;28;20209;-85
2023/03/10 06:04:45;;;;;;;0.10;0.10;;;10.60;99.90;;;;;;5037859;28;20182;-85
2023/03/10 06:07:10;;;;;;;0.00;0.00;;;10.60;99.90;;;;;;5015785;28;20217;-86
2023/03/10 06:09:36;;;;;;;0.10;0.10;;;10.70;99.90;;;;;;5020468;28;20326;-85
2023/03/10 06:12:01;;;;;;;0.10;0.10;;;10.50;99.90;;;;;;5019505;28;20721;-85
2023/03/10 06:14:27;;;;;;;0.10;0.10;;;10.60;99.90;;;;;;5019784;28;20186;-86
2023/03/10 06:16:53;;;;;;;0.10;0.10;;;10.50;99.90;;;;;;5018145;28;20263;-85
2023/03/10 06:19:20;;;;;;;0.10;0.10;;;10.40;99.90;;;;;;5019398;28;20190;-85
2023/03/10 06:21:46;;;;;;;0.00;0.00;;;10.50;99.90;;;;;;5019425;28;20192;-82
2023/03/10 06:24:12;;;;;;;0.10;0.10;;;10.60;99.90;;;;;;5040387;28;20189;-83
2023/03/10 06:26:38;;;;;;;0.10;0.10;;;10.70;99.90;;;;;;5021807;28;20272;-83
2023/03/10 06:29:04;;;;;;;0.10;0.10;;;10.80;99.90;;;;;;5038624;28;20267;-83
2023/03/10 06:31:30;;;;;;;0.10;0.10;;;10.80;99.90;;;;;;5018364;28;20273;-83
2023/03/10 06:33:57;;;;;;;0.10;0.10;;;10.80;99.90;;;;;;5019795;28;20664;-84
2023/03/10 06:36:25;;;;;;;0.10;0.10;;;10.80;99.90;;;;;;5033408;28;20213;-84
2023/03/10 06:38:51;;;;;;;0.10;0.10;;;10.90;99.90;;;;;;5017520;28;20248;-84
2023/03/10 06:41:17;;;;;;;0.10;0.10;;;10.90;99.90;;;;;;5020640;28;20196;-83
2023/03/10 06:43:43;;;;;;;0.10;0.10;;;10.90;99.90;;;;;;5021349;28;20198;-84
2023/03/10 06:46:10;;;;;;;0.00;0.00;;;10.90;99.90;;;;;;5018503;28;20282;-85
2023/03/10 06:48:36;;;;;;;0.10;0.10;;;10.90;99.90;;;;;;5017357;28;20186;-85
2023/03/10 06:51:05;;;;;;;0.10;0.10;;;10.90;99.90;;;;;;5017065;28;20241;-85
2023/03/10 06:53:31;;;;;;;0.10;0.10;;;10.90;99.90;;;;;;5022254;28;20205;-84
2023/03/10 06:56:02;;;;;;;0.10;0.10;;;10.90;99.90;;;;;;5018320;28;20297;-83
2023/03/10 06:58:29;;;;;;;0.10;0.10;;;10.90;99.90;;;;;;5016580;28;20214;-83
2023/03/10 07:00:54;;;;;;;0.10;0.10;;;10.90;99.90;;;;;;5018569;28;20217;-84
2023/03/10 07:03:20;;;;;;;0.10;0.10;;;10.90;99.90;;;;;;5034881;28;20199;-84
2023/03/10 07:05:46;;;;;;;0.10;0.10;;;11.00;99.90;;;;;;5037662;28;20898;-83
2023/03/10 07:08:12;;;;;;;0.10;0.10;;;10.90;99.90;;;;;;5039152;28;20702;-83
2023/03/10 07:10:38;;;;;;;0.10;0.10;;;10.90;99.90;;;;;;5037686;28;20198;-83
2023/03/10 07:13:03;;;;;;;0.10;0.10;;;11.00;99.90;;;;;;5016975;28;20281;-83
2023/03/10 07:15:30;;;;;;;0.00;0.00;;;11.00;99.90;;;;;;5037469;28;20182;-83
2023/03/10 07:17:55;;;;;;;0.10;0.10;;;11.00;99.90;;;;;;5018156;28;20210;-83
2023/03/10 07:20:22;;;;;;;0.10;0.10;;;10.90;99.90;;;;;;5013903;28;20197;-82
2023/03/10 07:22:49;;;;;;;0.10;0.10;;;11.00;99.90;;;;;;5015930;28;20204;-84
2023/03/10 07:25:14;;;;;;;0.10;0.10;;;11.00;99.90;;;;;;5015934;28;20251;-86
2023/03/10 07:27:40;;;;;;;0.10;0.10;;;11.00;99.90;;;;;;5032742;28;20242;-85
2023/03/10 07:30:07;;;;;;;0.10;0.10;;;11.10;99.90;;;;;;5016518;28;20186;-84
2023/03/10 07:32:33;;;;;;;0.00;0.00;;;11.20;99.90;;;;;;5035836;28;20177;-85
2023/03/10 07:34:59;;;;;;;0.10;0.10;;;11.20;99.90;;;;;;5015988;28;20553;-85
2023/03/10 07:37:24;;;;;;;0.10;0.10;;;11.20;99.90;;;;;;5017717;28;20599;-85
2023/03/10 07:39:52;;;;;;;0.07;0.07;;;11.30;99.90;;;;;;5015996;28;20473;-86
2023/03/10 07:42:17;;;;;;;0.10;0.10;;;11.30;99.90;;;;;;5036523;28;20186;-86
2023/03/10 07:44:43;;;;;;;0.10;0.10;;;11.40;99.90;;;;;;5015588;28;20197;-85
2023/03/10 07:47:08;;;;;;;0.10;0.10;;;11.30;99.90;;;;;;5015842;28;20213;-86
2023/03/10 07:49:34;;;;;;;0.10;0.10;;;11.10;99.90;;;;;;5019091;28;20682;-84
2023/03/10 07:51:59;;;;;;;0.00;0.00;;;11.20;99.90;;;;;;5018844;28;20193;-86
2023/03/10 07:54:25;;;;;;;0.10;0.10;;;11.20;99.90;;;;;;5015846;28;20182;-86
2023/03/10 07:56:50;;;;;;;0.10;0.10;;;11.30;99.90;;;;;;5036639;28;20206;-83
2023/03/10 07:59:16;;;;;;;0.10;0.10;;;11.30;99.90;;;;;;5017022;28;20663;-84
2023/03/10 08:01:42;;;;;;;0.10;0.10;;;11.40;99.90;;;;;;5035289;28;20900;-85
2023/03/10 08:04:07;;;;;;;0.10;0.10;;;11.30;99.90;;;;;;5024296;28;20240;-85
2023/03/10 08:06:34;;;;;;;0.10;0.10;;;11.30;99.90;;;;;;5039891;28;20214;-85
2023/03/10 08:08:59;;;;;;;0.10;0.10;;;11.30;99.90;;;;;;5025996;28;20184;-86
2023/03/10 08:11:26;;;;;;;0.10;0.10;;;11.30;99.90;;;;;;5045993;28;20175;-85
2023/03/10 08:13:51;;;;;;;0.10;0.10;;;11.30;99.90;;;;;;5020444;28;20232;-85
2023/03/10 08:16:19;;;;;;;0.10;0.10;;;11.20;99.90;;;;;;5017596;28;20185;-86
2023/03/10 08:18:44;;;;;;;0.10;0.10;;;11.20;99.90;;;;;;5017428;28;20674;-85
2023/03/10 08:21:10;;;;;;;0.00;0.00;;;11.10;99.90;;;;;;5011458;28;20179;-86
2023/03/10 08:23:36;;;;;;;0.10;0.10;;;11.10;99.90;;;;;;5017263;28;20208;-82
2023/03/10 08:26:06;;;;;;;0.10;0.10;;;11.10;99.90;;;;;;5019605;28;20202;-82
2023/03/10 08:28:34;;;;;;;0.10;0.10;;;11.10;99.90;;;;;;5037644;28;20232;-82
2023/03/10 08:31:05;;;;;;;0.10;0.10;;;11.20;99.90;;;;;;5023083;28;20178;-83
2023/03/10 08:33:31;;;;;;;0.00;0.00;;;11.30;99.90;;;;;;5024303;28;20219;-82
2023/03/10 08:36:01;;;;;;;0.10;0.10;;;11.40;99.90;;;;;;5029383;28;20190;-82
2023/03/10 08:38:27;;;;;;;0.10;0.10;;;11.40;99.90;;;;;;5028935;28;20300;-83
2023/03/10 08:40:53;;;;;;;0.00;0.00;;;11.40;99.90;;;;;;5042300;28;20212;-82
2023/03/10 08:43:18;;;;;;;0.03;0.03;;;11.30;99.90;;;;;;5023691;28;20263;-82
2023/03/10 08:45:44;;;;;;;0.10;0.10;;;11.30;99.90;;;;;;5020458;28;20209;-82
2023/03/10 08:48:09;;;;;;;0.10;0.10;;;11.50;99.90;;;;;;5018177;28;20209;-83
2023/03/10 08:50:35;;;;;;;0.00;0.00;;;11.60;99.90;;;;;;5019257;28;20232;-83
2023/03/10 08:53:02;;;;;;;0.10;0.10;;;11.50;99.90;;;;;;5018980;28;20232;-83
2023/03/10 08:55:28;;;;;;;0.07;0.07;;;11.40;99.90;;;;;;5038043;28;20193;-83
2023/03/10 08:57:53;;;;;;;0.10;0.10;;;11.30;99.90;;;;;;5033586;28;20214;-83
2023/03/10 09:00:19;;;;;;;0.10;0.10;;;11.20;99.90;;;;;;5020687;28;20254;-82
2023/03/10 09:02:45;;;;;;;0.10;0.10;;;11.20;99.90;;;;;;5040117;28;20190;-82
2023/03/10 09:05:11;;;;;;;0.10;0.10;;;11.10;99.90;;;;;;5040988;28;20198;-83
2023/03/10 09:07:36;;;;;;;0.10;0.10;;;11.10;99.90;;;;;;5023469;28;20202;-83
2023/03/10 09:10:04;;;;;;;0.10;0.10;;;11.30;99.90;;;;;;5041231;28;20190;-83
2023/03/10 09:12:29;;;;;;;0.10;0.10;;;11.40;99.90;;;;;;5022028;28;20748;-83
2023/03/10 09:14:55;;;;;;;0.00;0.00;;;11.60;99.90;;;;;;5024349;28;20218;-86
2023/03/10 09:17:20;;;;;;;0.00;0.00;;;11.60;99.90;;;;;;5033457;28;20240;-84
2023/03/10 09:19:46;;;;;;;0.10;0.10;;;11.70;99.90;;;;;;5045726;28;20210;-82
2023/03/10 09:22:12;;;;;;;0.10;0.10;;;11.90;99.90;;;;;;5030046;28;20252;-82
2023/03/10 09:24:37;;;;;;;0.10;0.10;;;12.00;99.90;;;;;;5029275;28;20190;-83
2023/03/10 09:27:03;;;;;;;0.10;0.10;;;12.10;99.90;;;;;;5050314;28;20619;-82
2023/03/10 09:29:28;;;;;;;0.10;0.10;;;12.10;99.90;;;;;;5032621;28;20209;-83
2023/03/10 09:31:54;;;;;;;0.10;0.10;;;12.40;99.90;;;;;;5026275;28;20756;-83
2023/03/10 09:34:19;;;;;;;0.10;0.10;;;12.70;99.90;;;;;;5040614;28;20225;-83
2023/03/10 09:36:45;;;;;;;0.10;0.10;;;12.90;99.90;;;;;;5022551;28;20226;-82
2023/03/10 09:39:11;;;;;;;0.10;0.10;;;13.00;99.90;;;;;;5023782;28;20197;-82
2023/03/10 09:42:07;;;;;;;0.10;0.10;;;13.00;99.90;;;;;;5043028;28;20183;-82
2023/03/10 09:44:50;;;;;;;0.00;0.00;;;13.20;99.90;;;;;;5024441;28;20696;-82
2023/03/10 09:47:51;;;;;;;0.10;0.10;;;13.00;99.90;;;;;;5049478;28;20224;-81
2023/03/10 09:50:42;;;;;;;0.00;0.00;;;12.60;99.90;;;;;;4965195;28;20775;-81
2023/03/10 09:53:25;;;;;;;0.00;0.00;;;12.60;99.90;;;;;;5015004;28;20698;-81
2023/03/10 09:55:52;;;;;;;0.10;0.10;;;12.40;99.90;;;;;;5041088;28;20228;-81
2023/03/10 09:58:34;;;;;;;0.10;0.10;;;12.30;99.90;;;;;;5019408;28;20214;-81
2023/03/10 10:01:00;;;;;;;0.10;0.10;;;12.30;99.90;;;;;;5034155;28;20183;-81
2023/03/10 10:03:46;;;;;;;0.10;0.10;;;12.40;99.90;;;;;;5023891;28;20182;-81
2023/03/10 10:06:27;;;;;;;0.10;0.10;;;12.40;99.90;;;;;;5040870;28;20292;-81
2023/03/10 10:08:54;;;;;;;0.10;0.10;;;12.40;99.90;;;;;;5020735;28;20192;-81
2023/03/10 10:11:20;;;;;;;0.10;0.10;;;12.50;99.90;;;;;;5022102;28;20198;-83
2023/03/10 10:13:45;;;;;;;0.10;0.10;;;12.40;99.90;;;;;;5022697;28;20329;-83
2023/03/10 10:16:34;;;;;;;0.10;0.10;;;12.40;99.90;;;;;;5041333;28;20273;-83
2023/03/10 10:19:11;;;;;;;0.10;0.10;;;12.50;99.90;;;;;;5023703;28;20281;-83
2023/03/10 10:22:06;;;;;;;0.10;0.10;;;12.60;99.90;;;;;;5022027;28;20182;-83
2023/03/10 10:24:31;;;;;;;0.10;0.10;;;13.20;99.90;;;;;;5021217;28;21286;-83
2023/03/10 10:26:57;;;;;;;0.00;0.00;;;13.30;99.90;;;;;;5023669;28;20236;-82
2023/03/10 10:29:26;;;;;;;0.10;0.10;;;13.30;99.90;;;;;;5044625;28;20709;-82
2023/03/10 10:32:10;;;;;;;0.10;0.10;;;14.00;99.90;;;;;;5020654;28;20186;-85
2023/03/10 10:34:42;;;;;;;0.03;0.03;;;14.70;99.90;;;;;;5016681;28;20188;-83
2023/03/10 10:37:34;;;;;;;0.10;0.10;;;14.90;99.90;;;;;;5038467;28;20213;-83
2023/03/10 10:40:00;;;;;;;0.10;0.10;;;15.20;99.90;;;;;;5020551;28;20185;-82
2023/03/10 10:42:33;;;;;;;0.10;0.10;;;15.50;99.90;;;;;;5039229;28;20196;-82
2023/03/10 10:45:05;;;;;;;0.10;0.10;;;15.70;99.90;;;;;;5036840;28;20181;-82
2023/03/10 10:47:58;;;;;;;0.10;0.10;;;15.70;99.90;;;;;;5021744;28;20288;-82
2023/03/10 10:50:30;;;;;;;0.10;0.10;;;15.70;99.90;;;;;;5016390;28;20228;-82
2023/03/10 10:53:18;;;;;;;0.10;0.10;;;15.30;99.90;;;;;;5019892;28;20194;-82
2023/03/10 10:55:45;;;;;;;0.00;0.00;;;15.00;99.90;;;;;;5019959;28;20204;-83
2023/03/10 10:58:31;;;;;;;0.10;0.10;;;14.50;99.90;;;;;;5019300;28;20239;-82
2023/03/10 11:01:11;;;;;;;0.10;0.10;;;14.00;99.90;;;;;;5037252;28;20193;-82
2023/03/10 11:03:43;;;;;;;0.10;0.10;;;13.80;99.90;;;;;;5022787;28;20187;-82
2023/03/10 11:06:26;;;;;;;0.10;0.10;;;13.70;99.90;;;;;;5020812;28;20209;-82
2023/03/10 11:09:12;;;;;;;0.10;0.10;;;13.50;99.90;;;;;;5029007;28;20193;-82
2023/03/10 11:11:52;;;;;;;0.10;0.10;;;13.40;99.90;;;;;;5037005;28;20206;-82
2023/03/10 11:15:00;;;;;;;0.10;0.10;;;13.30;99.90;;;;;;5020282;28;20189;-81
2023/03/10 11:17:42;;;;;;;0.10;0.10;;;13.30;99.90;;;;;;5020786;28;20215;-81
2023/03/10 11:20:29;;;;;;;0.20;0.20;;;13.20;99.90;;;;;;5019178;28;20259;-82
2023/03/10 11:23:11;;;;;;;0.10;0.10;;;13.20;99.90;;;;;;5039343;28;20280;-82
2023/03/10 11:25:36;;;;;;;0.10;0.10;;;13.30;99.90;;;;;;5021037;28;20203;-82
2023/03/10 11:28:11;;;;;;;0.10;0.10;;;13.50;99.90;;;;;;5023411;28;20546;-82
2023/03/10 11:30:42;;;;;;;0.10;0.10;;;13.80;99.90;;;;;;5040257;28;20177;-83
2023/03/10 11:33:30;;;;;;;0.23;0.23;;;14.10;99.90;;;;;;5019979;28;20217;-82
2023/03/10 11:36:04;;;;;;;0.10;0.10;;;14.60;99.90;;;;;;5041744;28;20186;-82
2023/03/10 11:38:38;;;;;;;0.10;0.10;;;14.90;99.90;;;;;;5020770;28;20226;-82
2023/03/10 11:41:26;;;;;;;0.10;0.10;;;14.70;99.90;;;;;;5040186;28;20182;-82
2023/03/10 11:44:13;;;;;;;0.10;0.10;;;15.00;99.90;;;;;;5042695;28;20586;-82
2023/03/10 11:46:59;;;;;;;0.10;0.10;;;15.30;99.90;;;;;;5030402;28;20595;-83
2023/03/10 11:49:42;;;;;;;0.10;0.10;;;15.40;99.90;;;;;;5036545;28;20181;-84
2023/03/10 11:52:13;;;;;;;0.10;0.10;;;15.70;99.90;;;;;;5041172;28;20194;-83
2023/03/10 11:54:47;;;;;;;0.10;0.10;;;15.50;99.90;;;;;;5038980;28;20171;-83
2023/03/10 11:57:17;;;;;;;0.10;0.10;;;15.00;99.90;;;;;;5020328;28;20349;-83
2023/03/10 11:59:54;;;;;;;0.10;0.10;;;14.70;99.90;;;;;;5017377;28;20185;-83
2023/03/10 12:02:32;;;;;;;0.10;0.10;;;14.40;99.90;;;;;;5036001;28;20200;-87
2023/03/10 12:05:02;;;;;;;0.10;0.10;;;14.40;99.90;;;;;;5033817;28;20200;-87
2023/03/10 12:07:41;;;;;;;0.10;0.10;;;14.30;99.90;;;;;;5037540;28;20217;-85
2023/03/10 12:10:09;;;;;;;0.10;0.10;;;14.00;99.90;;;;;;5026280;28;20189;-83
2023/03/10 12:12:38;;;;;;;0.10;0.10;;;13.80;99.90;;;;;;5023455;28;20184;-84
2023/03/10 12:15:11;;;;;;;0.10;0.10;;;13.40;99.90;;;;;;5025546;28;20607;-82
2023/03/10 12:17:39;;;;;;;0.10;0.10;;;13.30;99.90;;;;;;5015194;28;20197;-82
2023/03/10 12:20:14;;;;;;;0.00;0.00;;;13.10;99.90;;;;;;5012126;28;20345;-88
2023/03/10 12:22:49;;;;;;;0.10;0.10;;;13.10;99.90;;;;;;5018940;28;20182;-83
2023/03/10 12:25:31;;;;;;;0.10;0.10;;;12.90;99.90;;;;;;5039038;28;20678;-84
2023/03/10 12:28:33;;;;;;;0.10;0.10;;;12.90;99.90;;;;;;5018201;28;20281;-82
2023/03/10 12:31:09;;;;;;;0.10;0.10;;;12.80;99.90;;;;;;4940965;28;20181;-84
2023/03/10 12:33:38;;;;;;;0.10;0.10;;;12.80;99.90;;;;;;5012441;28;20194;-84
2023/03/10 12:36:31;;;;;;;0.10;0.10;;;12.70;99.90;;;;;;5034768;28;22316;-86
2023/03/10 12:39:00;;;;;;;0.10;0.10;;;12.40;99.90;;;;;;5033947;28;20209;-84
2023/03/10 12:41:26;;;;;;;0.10;0.10;;;12.40;99.90;;;;;;5012326;28;20218;-84
2023/03/10 12:44:25;;;;;;;0.10;0.10;;;12.20;99.90;;;;;;5015036;28;20242;-84
2023/03/10 12:46:59;;;;;;;0.10;0.10;;;12.10;99.90;;;;;;5017275;28;20225;-84
2023/03/10 12:49:35;;;;;;;0.00;0.00;;;12.10;99.90;;;;;;5014576;28;20249;-84
2023/03/10 12:52:06;;;;;;;0.10;0.10;;;12.00;99.90;;;;;;5019406;28;20342;-83
2023/03/10 12:54:50;;;;;;;0.10;0.10;;;11.90;99.90;;;;;;5006479;28;20244;-83
2023/03/10 12:57:31;;;;;;;0.10;0.10;;;11.80;99.90;;;;;;5014480;28;20238;-84
2023/03/10 13:00:12;;;;;;;0.10;0.10;;;11.70;99.90;;;;;;5030190;28;20281;-85